sensor_id;sensor_type;location;lat;lon;timestamp;temperature;humidity
506;DHT22;551;48.524;9.056;2023-02-28T00:02:15;1.00;1.00
506;DHT22;551;48.524;9.056;2023-02-28T00:04:43;0.90;1.00
506;DHT22;551;48.524;9.056;2023-02-28T00:07:09;1.00;1.00
506;DHT22;551;48.524;9.056;2023-02-28T00:09:34;0.90;1.00
506;DHT22;551;48.524;9.056;2023-02-28T00:12:00;0.90;1.00
506;DHT22;551;48.524;9.056;2023-02-28T00:14:25;0.90;1.00
506;DHT22;551;48.524;9.056;2023-02-28T00:16:51;0.80;1.00
506;DHT22;551;48.524;9.056;2023-02-28T00:19:16;0.80;1.00
506;DHT22;551;48.524;9.056;2023-02-28T00:21:41;0.80;1.00
506;DHT22;551;48.524;9.056;2023-02-28T00:24:08;0.80;1.00
506;DHT22;551;48.524;9.056;2023-02-28T00:26:33;0.80;1.00
506;DHT22;551;48.524;9.056;2023-02-28T00:28:59;0.70;1.00
506;DHT22;551;48.524;9.056;2023-02-28T00:31:24;0.80;1.00
506;DHT22;551;48.524;9.056;2023-02-28T00:33:50;0.80;1.00
506;DHT22;551;48.524;9.056;2023-02-28T00:36:17;0.70;1.00
506;DHT22;551;48.524;9.056;2023-02-28T00:38:42;0.70;1.00
506;DHT22;551;48.524;9.056;2023-02-28T00:41:08;0.70;1.00
506;DHT22;551;48.524;9.056;2023-02-28T00:43:36;0.70;1.00
506;DHT22;551;48.524;9.056;2023-02-28T00:46:02;0.70;1.00
506;DHT22;551;48.524;9.056;2023-02-28T00:48:28;0.60;1.00
506;DHT22;551;48.524;9.056;2023-02-28T00:50:54;0.60;1.00
506;DHT22;551;48.524;9.056;2023-02-28T00:53:20;0.70;1.00
506;DHT22;551;48.524;9.056;2023-02-28T00:55:45;0.70;1.00
506;DHT22;551;48.524;9.056;2023-02-28T00:58:11;0.70;1.00
506;DHT22;551;48.524;9.056;2023-02-28T01:00:36;0.80;1.00
506;DHT22;551;48.524;9.056;2023-02-28T01:03:02;0.80;1.00
506;DHT22;551;48.524;9.056;2023-02-28T01:05:27;0.80;1.00
506;DHT22;551;48.524;9.056;2023-02-28T01:07:53;0.80;1.00
506;DHT22;551;48.524;9.056;2023-02-28T01:10:19;0.70;1.00
506;DHT22;551;48.524;9.056;2023-02-28T01:12:46;0.70;1.00
506;DHT22;551;48.524;9.056;2023-02-28T01:15:11;0.70;1.00
506;DHT22;551;48.524;9.056;2023-02-28T01:17:37;0.70;1.00
506;DHT22;551;48.524;9.056;2023-02-28T01:20:03;0.80;1.00
506;DHT22;551;48.524;9.056;2023-02-28T01:22:29;0.70;1.00
506;DHT22;551;48.524;9.056;2023-02-28T01:24:54;0.70;1.00
506;DHT22;551;48.524;9.056;2023-02-28T01:27:20;0.70;1.00
506;DHT22;551;48.524;9.056;2023-02-28T01:29:45;0.70;1.00
506;DHT22;551;48.524;9.056;2023-02-28T01:32:11;0.60;1.00
506;DHT22;551;48.524;9.056;2023-02-28T01:34:36;0.60;1.00
506;DHT22;551;48.524;9.056;2023-02-28T01:37:02;0.60;1.00
506;DHT22;551;48.524;9.056;2023-02-28T01:39:28;0.70;1.00
506;DHT22;551;48.524;9.056;2023-02-28T01:41:54;0.60;1.00
506;DHT22;551;48.524;9.056;2023-02-28T01:47:29;0.60;1.00
506;DHT22;551;48.524;9.056;2023-02-28T01:49:56;0.60;1.00
506;DHT22;551;48.524;9.056;2023-02-28T01:52:22;0.60;1.00
506;DHT22;551;48.524;9.056;2023-02-28T01:54:52;0.60;1.00
506;DHT22;551;48.524;9.056;2023-02-28T01:57:23;0.60;1.00
506;DHT22;551;48.524;9.056;2023-02-28T01:59:54;0.60;1.00
506;DHT22;551;48.524;9.056;2023-02-28T02:02:21;0.60;1.00
506;DHT22;551;48.524;9.056;2023-02-28T02:05:05;0.60;1.00
506;DHT22;551;48.524;9.056;2023-02-28T02:07:35;0.60;1.00
506;DHT22;551;48.524;9.056;2023-02-28T02:10:19;0.60;1.00
506;DHT22;551;48.524;9.056;2023-02-28T02:15:34;0.50;1.00
506;DHT22;551;48.524;9.056;2023-02-28T02:21:02;0.50;1.00
506;DHT22;551;48.524;9.056;2023-02-28T02:23:51;0.50;1.00
506;DHT22;551;48.524;9.056;2023-02-28T02:32:27;0.40;1.00
506;DHT22;551;48.524;9.056;2023-02-28T02:35:23;0.40;1.00
506;DHT22;551;48.524;9.056;2023-02-28T02:38:03;0.30;1.00
506;DHT22;551;48.524;9.056;2023-02-28T02:41:01;0.30;1.00
506;DHT22;551;48.524;9.056;2023-02-28T02:43:33;0.20;1.00
506;DHT22;551;48.524;9.056;2023-02-28T02:46:06;0.20;1.00
506;DHT22;551;48.524;9.056;2023-02-28T02:48:36;0.30;1.00
506;DHT22;551;48.524;9.056;2023-02-28T02:51:07;0.30;1.00
506;DHT22;551;48.524;9.056;2023-02-28T02:54:22;0.30;1.00
506;DHT22;551;48.524;9.056;2023-02-28T02:56:30;0.30;1.00
506;DHT22;551;48.524;9.056;2023-02-28T02:59:02;0.40;1.00
506;DHT22;551;48.524;9.056;2023-02-28T03:01:30;0.40;1.00
506;DHT22;551;48.524;9.056;2023-02-28T03:03:59;0.40;1.00
506;DHT22;551;48.524;9.056;2023-02-28T03:06:26;0.50;1.00
506;DHT22;551;48.524;9.056;2023-02-28T03:08:52;0.50;1.00
506;DHT22;551;48.524;9.056;2023-02-28T03:11:18;0.50;1.00
506;DHT22;551;48.524;9.056;2023-02-28T03:14:01;0.70;1.00
506;DHT22;551;48.524;9.056;2023-02-28T03:16:54;0.70;1.00
506;DHT22;551;48.524;9.056;2023-02-28T03:27:21;0.70;1.00
506;DHT22;551;48.524;9.056;2023-02-28T03:33:03;0.80;1.00
506;DHT22;551;48.524;9.056;2023-02-28T03:38:47;0.80;1.00
506;DHT22;551;48.524;9.056;2023-02-28T03:41:16;0.80;1.00
506;DHT22;551;48.524;9.056;2023-02-28T03:43:53;0.90;1.00
506;DHT22;551;48.524;9.056;2023-02-28T03:46:24;0.90;1.00
506;DHT22;551;48.524;9.056;2023-02-28T03:49:20;0.80;1.00
506;DHT22;551;48.524;9.056;2023-02-28T03:51:49;0.90;1.00
506;DHT22;551;48.524;9.056;2023-02-28T03:54:19;0.90;1.00
506;DHT22;551;48.524;9.056;2023-02-28T03:56:55;0.90;1.00
506;DHT22;551;48.524;9.056;2023-02-28T03:59:44;0.90;1.00
506;DHT22;551;48.524;9.056;2023-02-28T04:02:11;1.10;1.00
506;DHT22;551;48.524;9.056;2023-02-28T04:04:36;1.10;1.00
506;DHT22;551;48.524;9.056;2023-02-28T04:07:05;1.00;1.00
506;DHT22;551;48.524;9.056;2023-02-28T04:09:31;1.10;1.00
506;DHT22;551;48.524;9.056;2023-02-28T04:11:57;1.00;1.00
506;DHT22;551;48.524;9.056;2023-02-28T04:14:23;1.00;1.00
506;DHT22;551;48.524;9.056;2023-02-28T04:16:49;1.00;1.00
506;DHT22;551;48.524;9.056;2023-02-28T04:19:16;1.10;1.00
506;DHT22;551;48.524;9.056;2023-02-28T04:21:44;1.20;1.00
506;DHT22;551;48.524;9.056;2023-02-28T04:24:15;1.10;1.00
506;DHT22;551;48.524;9.056;2023-02-28T04:26:44;1.10;1.00
506;DHT22;551;48.524;9.056;2023-02-28T04:29:11;1.10;1.00
506;DHT22;551;48.524;9.056;2023-02-28T04:31:37;1.00;1.00
506;DHT22;551;48.524;9.056;2023-02-28T04:34:03;1.10;1.00
506;DHT22;551;48.524;9.056;2023-02-28T04:36:29;1.20;1.00
506;DHT22;551;48.524;9.056;2023-02-28T04:38:54;1.10;1.00
506;DHT22;551;48.524;9.056;2023-02-28T04:41:20;1.20;1.00
506;DHT22;551;48.524;9.056;2023-02-28T04:43:47;1.20;1.00
506;DHT22;551;48.524;9.056;2023-02-28T04:46:12;1.20;1.00
506;DHT22;551;48.524;9.056;2023-02-28T04:48:39;1.20;1.00
506;DHT22;551;48.524;9.056;2023-02-28T04:51:07;1.20;1.00
506;DHT22;551;48.524;9.056;2023-02-28T04:53:33;1.20;1.00
506;DHT22;551;48.524;9.056;2023-02-28T04:55:59;1.10;1.00
506;DHT22;551;48.524;9.056;2023-02-28T04:58:25;1.10;1.00
506;DHT22;551;48.524;9.056;2023-02-28T05:00:52;1.20;1.00
506;DHT22;551;48.524;9.056;2023-02-28T05:03:18;1.10;1.00
506;DHT22;551;48.524;9.056;2023-02-28T05:05:44;1.20;1.00
506;DHT22;551;48.524;9.056;2023-02-28T05:08:10;1.10;1.00
506;DHT22;551;48.524;9.056;2023-02-28T05:10:36;1.20;1.00
506;DHT22;551;48.524;9.056;2023-02-28T05:13:02;1.20;1.00
506;DHT22;551;48.524;9.056;2023-02-28T05:15:28;1.20;1.00
506;DHT22;551;48.524;9.056;2023-02-28T05:17:53;1.10;1.00
506;DHT22;551;48.524;9.056;2023-02-28T05:20:19;1.10;1.00
506;DHT22;551;48.524;9.056;2023-02-28T05:22:46;1.20;1.00
506;DHT22;551;48.524;9.056;2023-02-28T05:25:20;1.20;1.00
506;DHT22;551;48.524;9.056;2023-02-28T05:27:46;1.20;1.00
506;DHT22;551;48.524;9.056;2023-02-28T05:30:12;1.10;1.00
506;DHT22;551;48.524;9.056;2023-02-28T05:32:39;1.10;1.00
506;DHT22;551;48.524;9.056;2023-02-28T05:35:09;1.10;1.00
506;DHT22;551;48.524;9.056;2023-02-28T05:37:35;1.10;1.00
506;DHT22;551;48.524;9.056;2023-02-28T05:40:01;1.10;1.00
506;DHT22;551;48.524;9.056;2023-02-28T05:42:27;1.10;1.00
506;DHT22;551;48.524;9.056;2023-02-28T05:44:52;1.10;1.00
506;DHT22;551;48.524;9.056;2023-02-28T05:47:18;1.00;1.00
506;DHT22;551;48.524;9.056;2023-02-28T05:49:43;1.10;1.00
506;DHT22;551;48.524;9.056;2023-02-28T05:52:09;1.00;1.00
506;DHT22;551;48.524;9.056;2023-02-28T05:54:34;1.10;1.00
506;DHT22;551;48.524;9.056;2023-02-28T05:57:00;1.10;1.00
506;DHT22;551;48.524;9.056;2023-02-28T05:59:25;1.00;1.00
506;DHT22;551;48.524;9.056;2023-02-28T06:01:51;1.00;1.00
506;DHT22;551;48.524;9.056;2023-02-28T06:04:19;1.10;1.00
506;DHT22;551;48.524;9.056;2023-02-28T06:06:49;1.10;1.00
506;DHT22;551;48.524;9.056;2023-02-28T06:09:15;1.10;1.00
506;DHT22;551;48.524;9.056;2023-02-28T06:11:41;1.10;1.00
506;DHT22;551;48.524;9.056;2023-02-28T06:14:07;1.10;1.00
506;DHT22;551;48.524;9.056;2023-02-28T06:16:34;1.10;1.00
506;DHT22;551;48.524;9.056;2023-02-28T06:19:02;1.10;1.00
506;DHT22;551;48.524;9.056;2023-02-28T06:21:28;1.10;1.00
506;DHT22;551;48.524;9.056;2023-02-28T06:23:55;1.20;1.00
506;DHT22;551;48.524;9.056;2023-02-28T06:26:21;1.20;1.00
506;DHT22;551;48.524;9.056;2023-02-28T06:28:47;1.20;1.00
506;DHT22;551;48.524;9.056;2023-02-28T06:31:15;1.20;1.00
506;DHT22;551;48.524;9.056;2023-02-28T06:33:42;1.20;1.00
506;DHT22;551;48.524;9.056;2023-02-28T06:36:08;1.20;1.00
506;DHT22;551;48.524;9.056;2023-02-28T06:38:34;1.20;1.00
506;DHT22;551;48.524;9.056;2023-02-28T06:41:00;1.30;1.00
506;DHT22;551;48.524;9.056;2023-02-28T06:43:32;1.20;1.00
506;DHT22;551;48.524;9.056;2023-02-28T06:45:59;1.30;1.00
506;DHT22;551;48.524;9.056;2023-02-28T06:48:26;1.40;1.00
506;DHT22;551;48.524;9.056;2023-02-28T06:50:52;1.40;1.00
506;DHT22;551;48.524;9.056;2023-02-28T06:53:17;1.40;1.00
506;DHT22;551;48.524;9.056;2023-02-28T06:55:43;1.40;1.00
506;DHT22;551;48.524;9.056;2023-02-28T06:58:09;1.40;1.00
506;DHT22;551;48.524;9.056;2023-02-28T07:00:45;1.50;1.00
506;DHT22;551;48.524;9.056;2023-02-28T07:03:11;1.40;1.00
506;DHT22;551;48.524;9.056;2023-02-28T07:05:38;1.50;1.00
506;DHT22;551;48.524;9.056;2023-02-28T07:08:05;1.60;1.00
506;DHT22;551;48.524;9.056;2023-02-28T07:10:32;1.70;1.00
506;DHT22;551;48.524;9.056;2023-02-28T07:12:58;1.70;1.00
506;DHT22;551;48.524;9.056;2023-02-28T07:15:23;1.60;1.00
506;DHT22;551;48.524;9.056;2023-02-28T07:17:49;1.70;1.00
506;DHT22;551;48.524;9.056;2023-02-28T07:20:15;1.70;1.00
506;DHT22;551;48.524;9.056;2023-02-28T07:22:41;1.80;1.00
506;DHT22;551;48.524;9.056;2023-02-28T07:25:07;1.70;1.00
506;DHT22;551;48.524;9.056;2023-02-28T07:27:33;1.60;1.00
506;DHT22;551;48.524;9.056;2023-02-28T07:29:59;1.70;1.00
506;DHT22;551;48.524;9.056;2023-02-28T07:32:27;1.80;1.00
506;DHT22;551;48.524;9.056;2023-02-28T07:34:53;1.80;1.00
506;DHT22;551;48.524;9.056;2023-02-28T07:37:18;1.90;1.00
506;DHT22;551;48.524;9.056;2023-02-28T07:39:44;1.90;1.00
506;DHT22;551;48.524;9.056;2023-02-28T07:42:09;1.90;1.00
506;DHT22;551;48.524;9.056;2023-02-28T07:44:38;1.90;1.00
506;DHT22;551;48.524;9.056;2023-02-28T07:47:07;1.90;1.00
506;DHT22;551;48.524;9.056;2023-02-28T07:49:34;2.00;1.00
506;DHT22;551;48.524;9.056;2023-02-28T07:51:59;2.00;1.00
506;DHT22;551;48.524;9.056;2023-02-28T07:54:25;2.10;1.00
506;DHT22;551;48.524;9.056;2023-02-28T07:56:50;2.20;1.00
506;DHT22;551;48.524;9.056;2023-02-28T07:59:15;2.30;1.00
506;DHT22;551;48.524;9.056;2023-02-28T08:01:41;2.40;1.00
506;DHT22;551;48.524;9.056;2023-02-28T08:04:07;2.40;1.00
506;DHT22;551;48.524;9.056;2023-02-28T08:06:32;2.50;1.00
506;DHT22;551;48.524;9.056;2023-02-28T08:08:58;2.50;1.00
506;DHT22;551;48.524;9.056;2023-02-28T08:11:23;2.50;1.00
506;DHT22;551;48.524;9.056;2023-02-28T08:13:48;2.50;1.00
506;DHT22;551;48.524;9.056;2023-02-28T08:16:14;2.40;1.00
506;DHT22;551;48.524;9.056;2023-02-28T08:18:42;2.40;1.00
506;DHT22;551;48.524;9.056;2023-02-28T08:21:09;2.50;1.00
506;DHT22;551;48.524;9.056;2023-02-28T08:23:35;2.30;1.00
506;DHT22;551;48.524;9.056;2023-02-28T08:26:01;2.40;1.00
506;DHT22;551;48.524;9.056;2023-02-28T08:28:27;2.50;1.00
506;DHT22;551;48.524;9.056;2023-02-28T08:30:53;2.60;1.00
506;DHT22;551;48.524;9.056;2023-02-28T08:33:19;2.60;1.00
506;DHT22;551;48.524;9.056;2023-02-28T08:35:44;2.60;1.00
506;DHT22;551;48.524;9.056;2023-02-28T08:38:10;2.70;1.00
506;DHT22;551;48.524;9.056;2023-02-28T08:40:35;2.60;1.00
506;DHT22;551;48.524;9.056;2023-02-28T08:43:01;2.60;1.00
506;DHT22;551;48.524;9.056;2023-02-28T08:45:26;2.60;1.00
506;DHT22;551;48.524;9.056;2023-02-28T08:47:53;2.70;1.00
506;DHT22;551;48.524;9.056;2023-02-28T08:50:19;2.70;1.00
506;DHT22;551;48.524;9.056;2023-02-28T08:52:45;2.80;1.00
506;DHT22;551;48.524;9.056;2023-02-28T08:55:10;2.90;1.00
506;DHT22;551;48.524;9.056;2023-02-28T08:57:36;3.00;1.00
506;DHT22;551;48.524;9.056;2023-02-28T09:00:03;3.10;1.00
506;DHT22;551;48.524;9.056;2023-02-28T09:02:30;3.10;1.00
506;DHT22;551;48.524;9.056;2023-02-28T09:04:56;3.20;1.00
506;DHT22;551;48.524;9.056;2023-02-28T09:07:23;3.30;1.00
506;DHT22;551;48.524;9.056;2023-02-28T09:09:49;3.20;1.00
506;DHT22;551;48.524;9.056;2023-02-28T09:12:24;3.20;1.00
506;DHT22;551;48.524;9.056;2023-02-28T09:14:50;3.40;1.00
506;DHT22;551;48.524;9.056;2023-02-28T09:17:16;3.50;1.00
506;DHT22;551;48.524;9.056;2023-02-28T09:19:42;3.60;1.00
506;DHT22;551;48.524;9.056;2023-02-28T09:22:08;3.60;1.00
506;DHT22;551;48.524;9.056;2023-02-28T09:24:35;3.60;1.00
506;DHT22;551;48.524;9.056;2023-02-28T09:27:01;3.70;1.00
506;DHT22;551;48.524;9.056;2023-02-28T09:29:26;3.80;1.00
506;DHT22;551;48.524;9.056;2023-02-28T09:31:52;3.80;1.00
506;DHT22;551;48.524;9.056;2023-02-28T09:34:17;3.80;1.00
506;DHT22;551;48.524;9.056;2023-02-28T09:36:43;3.90;1.00
506;DHT22;551;48.524;9.056;2023-02-28T09:39:09;4.00;1.00
506;DHT22;551;48.524;9.056;2023-02-28T09:41:45;3.90;1.00
506;DHT22;551;48.524;9.056;2023-02-28T09:44:37;4.00;1.00
506;DHT22;551;48.524;9.056;2023-02-28T09:47:41;4.10;1.00
506;DHT22;551;48.524;9.056;2023-02-28T09:50:32;4.30;1.00
506;DHT22;551;48.524;9.056;2023-02-28T09:52:59;4.30;1.00
506;DHT22;551;48.524;9.056;2023-02-28T09:55:35;4.30;1.00
506;DHT22;551;48.524;9.056;2023-02-28T09:58:02;4.30;1.00
506;DHT22;551;48.524;9.056;2023-02-28T10:00:36;4.50;1.00
506;DHT22;551;48.524;9.056;2023-02-28T10:05:52;4.50;1.00
506;DHT22;551;48.524;9.056;2023-02-28T10:08:26;4.40;1.00
506;DHT22;551;48.524;9.056;2023-02-28T10:11:00;4.50;1.00
506;DHT22;551;48.524;9.056;2023-02-28T10:13:56;4.60;1.00
506;DHT22;551;48.524;9.056;2023-02-28T10:16:43;4.70;1.00
506;DHT22;551;48.524;9.056;2023-02-28T10:19:26;4.80;1.00
506;DHT22;551;48.524;9.056;2023-02-28T10:22:10;4.90;1.00
506;DHT22;551;48.524;9.056;2023-02-28T10:24:45;4.90;1.00
506;DHT22;551;48.524;9.056;2023-02-28T10:27:16;5.00;1.00
506;DHT22;551;48.524;9.056;2023-02-28T10:29:48;4.90;1.00
506;DHT22;551;48.524;9.056;2023-02-28T10:32:17;5.10;1.00
506;DHT22;551;48.524;9.056;2023-02-28T10:34:44;5.20;1.00
506;DHT22;551;48.524;9.056;2023-02-28T10:37:11;5.40;1.00
506;DHT22;551;48.524;9.056;2023-02-28T10:39:41;5.50;1.00
506;DHT22;551;48.524;9.056;2023-02-28T10:42:23;5.60;1.00
506;DHT22;551;48.524;9.056;2023-02-28T10:45:12;5.60;1.00
506;DHT22;551;48.524;9.056;2023-02-28T10:50:33;5.70;1.00
506;DHT22;551;48.524;9.056;2023-02-28T10:56:00;5.80;1.00
506;DHT22;551;48.524;9.056;2023-02-28T11:01:15;6.20;1.00
506;DHT22;551;48.524;9.056;2023-02-28T11:03:41;6.30;1.00
506;DHT22;551;48.524;9.056;2023-02-28T11:06:12;6.30;1.00
506;DHT22;551;48.524;9.056;2023-02-28T11:08:53;6.40;1.00
506;DHT22;551;48.524;9.056;2023-02-28T11:11:20;6.50;1.00
506;DHT22;551;48.524;9.056;2023-02-28T11:13:47;6.70;1.00
506;DHT22;551;48.524;9.056;2023-02-28T11:16:15;7.00;1.00
506;DHT22;551;48.524;9.056;2023-02-28T11:18:42;7.20;1.00
506;DHT22;551;48.524;9.056;2023-02-28T11:21:09;7.60;1.00
506;DHT22;551;48.524;9.056;2023-02-28T11:23:41;7.70;1.00
506;DHT22;551;48.524;9.056;2023-02-28T11:26:07;8.00;1.00
506;DHT22;551;48.524;9.056;2023-02-28T11:28:39;8.30;1.00
506;DHT22;551;48.524;9.056;2023-02-28T11:33:49;8.40;1.00
506;DHT22;551;48.524;9.056;2023-02-28T11:38:47;8.70;1.00
506;DHT22;551;48.524;9.056;2023-02-28T11:41:22;8.80;1.00
506;DHT22;551;48.524;9.056;2023-02-28T11:44:04;8.80;1.00
506;DHT22;551;48.524;9.056;2023-02-28T11:46:41;8.90;1.00
506;DHT22;551;48.524;9.056;2023-02-28T11:52:52;10.00;1.00
506;DHT22;551;48.524;9.056;2023-02-28T11:58:02;11.40;1.00
506;DHT22;551;48.524;9.056;2023-02-28T12:00:47;12.10;1.00
506;DHT22;551;48.524;9.056;2023-02-28T12:06:12;12.20;1.00
506;DHT22;551;48.524;9.056;2023-02-28T12:08:56;11.40;1.00
506;DHT22;551;48.524;9.056;2023-02-28T12:11:50;10.80;1.00
506;DHT22;551;48.524;9.056;2023-02-28T12:17:21;10.40;1.00
506;DHT22;551;48.524;9.056;2023-02-28T12:19:57;10.40;1.00
506;DHT22;551;48.524;9.056;2023-02-28T12:27:41;11.20;1.00
506;DHT22;551;48.524;9.056;2023-02-28T12:30:28;11.20;1.00
506;DHT22;551;48.524;9.056;2023-02-28T12:35:41;11.00;1.00
506;DHT22;551;48.524;9.056;2023-02-28T12:43:48;12.50;1.00
506;DHT22;551;48.524;9.056;2023-02-28T12:46:29;12.40;1.00
506;DHT22;551;48.524;9.056;2023-02-28T12:48:56;12.60;1.00
506;DHT22;551;48.524;9.056;2023-02-28T12:51:25;13.60;1.00
506;DHT22;551;48.524;9.056;2023-02-28T12:57:28;15.50;1.00
506;DHT22;551;48.524;9.056;2023-02-28T12:59:34;16.20;1.00
506;DHT22;551;48.524;9.056;2023-02-28T13:05:32;16.80;1.00
506;DHT22;551;48.524;9.056;2023-02-28T13:11:24;17.60;1.00
506;DHT22;551;48.524;9.056;2023-02-28T13:13:57;18.30;1.00
506;DHT22;551;48.524;9.056;2023-02-28T13:16:23;18.90;1.00
506;DHT22;551;48.524;9.056;2023-02-28T13:18:49;18.90;1.00
506;DHT22;551;48.524;9.056;2023-02-28T13:21:29;19.00;1.00
506;DHT22;551;48.524;9.056;2023-02-28T13:29:01;17.40;1.00
506;DHT22;551;48.524;9.056;2023-02-28T13:31:29;16.40;1.00
506;DHT22;551;48.524;9.056;2023-02-28T13:36:31;15.60;1.00
506;DHT22;551;48.524;9.056;2023-02-28T13:39:02;16.20;1.00
506;DHT22;551;48.524;9.056;2023-02-28T13:44:08;16.90;1.00
506;DHT22;551;48.524;9.056;2023-02-28T13:46:36;16.80;1.00
506;DHT22;551;48.524;9.056;2023-02-28T13:54:58;16.60;1.00
506;DHT22;551;48.524;9.056;2023-02-28T13:58:08;17.10;1.00
506;DHT22;551;48.524;9.056;2023-02-28T14:08:55;13.60;1.00
506;DHT22;551;48.524;9.056;2023-02-28T14:11:33;14.10;1.00
506;DHT22;551;48.524;9.056;2023-02-28T14:14:00;14.40;1.00
506;DHT22;551;48.524;9.056;2023-02-28T14:17:02;13.90;1.00
506;DHT22;551;48.524;9.056;2023-02-28T14:19:28;13.20;1.00
506;DHT22;551;48.524;9.056;2023-02-28T14:27:16;11.10;1.00
506;DHT22;551;48.524;9.056;2023-02-28T14:35:39;10.20;1.00
506;DHT22;551;48.524;9.056;2023-02-28T14:38:05;9.80;1.00
506;DHT22;551;48.524;9.056;2023-02-28T14:40:35;9.60;1.00
506;DHT22;551;48.524;9.056;2023-02-28T14:43:05;9.60;1.00
506;DHT22;551;48.524;9.056;2023-02-28T14:45:32;9.50;1.00
506;DHT22;551;48.524;9.056;2023-02-28T14:48:00;9.50;1.00
506;DHT22;551;48.524;9.056;2023-02-28T14:50:33;9.40;1.00
506;DHT22;551;48.524;9.056;2023-02-28T14:52:59;9.10;1.00
506;DHT22;551;48.524;9.056;2023-02-28T14:55:31;8.90;1.00
506;DHT22;551;48.524;9.056;2023-02-28T14:58:03;9.00;1.00
506;DHT22;551;48.524;9.056;2023-02-28T15:00:42;8.90;1.00
506;DHT22;551;48.524;9.056;2023-02-28T15:06:13;9.00;1.00
506;DHT22;551;48.524;9.056;2023-02-28T15:08:37;8.80;1.00
506;DHT22;551;48.524;9.056;2023-02-28T15:11:05;8.70;1.00
506;DHT22;551;48.524;9.056;2023-02-28T15:13:48;8.70;1.00
506;DHT22;551;48.524;9.056;2023-02-28T15:16:32;8.60;1.00
506;DHT22;551;48.524;9.056;2023-02-28T15:19:02;8.70;1.00
506;DHT22;551;48.524;9.056;2023-02-28T15:21:33;8.70;1.00
506;DHT22;551;48.524;9.056;2023-02-28T15:24:07;8.60;1.00
506;DHT22;551;48.524;9.056;2023-02-28T15:26:41;8.40;1.00
506;DHT22;551;48.524;9.056;2023-02-28T15:29:14;8.30;1.00
506;DHT22;551;48.524;9.056;2023-02-28T15:31:44;8.30;1.00
506;DHT22;551;48.524;9.056;2023-02-28T15:34:19;8.30;1.00
506;DHT22;551;48.524;9.056;2023-02-28T15:36:47;8.10;1.00
506;DHT22;551;48.524;9.056;2023-02-28T15:39:26;8.10;1.00
506;DHT22;551;48.524;9.056;2023-02-28T15:41:52;8.20;1.00
506;DHT22;551;48.524;9.056;2023-02-28T15:44:35;8.20;1.00
506;DHT22;551;48.524;9.056;2023-02-28T15:47:17;8.10;1.00
506;DHT22;551;48.524;9.056;2023-02-28T15:49:53;8.00;1.00
506;DHT22;551;48.524;9.056;2023-02-28T15:52:28;8.00;1.00
506;DHT22;551;48.524;9.056;2023-02-28T15:54:58;7.90;1.00
506;DHT22;551;48.524;9.056;2023-02-28T15:57:26;7.80;1.00
506;DHT22;551;48.524;9.056;2023-02-28T15:59:56;7.90;1.00
506;DHT22;551;48.524;9.056;2023-02-28T16:02:36;8.00;1.00
506;DHT22;551;48.524;9.056;2023-02-28T16:07:35;7.80;1.00
506;DHT22;551;48.524;9.056;2023-02-28T16:10:01;7.80;1.00
506;DHT22;551;48.524;9.056;2023-02-28T16:12:31;7.70;1.00
506;DHT22;551;48.524;9.056;2023-02-28T16:14:59;7.80;1.00
506;DHT22;551;48.524;9.056;2023-02-28T16:17:30;7.70;1.00
506;DHT22;551;48.524;9.056;2023-02-28T16:19:58;7.60;1.00
506;DHT22;551;48.524;9.056;2023-02-28T16:22:24;7.50;1.00
506;DHT22;551;48.524;9.056;2023-02-28T16:24:50;7.40;1.00
506;DHT22;551;48.524;9.056;2023-02-28T16:27:19;7.20;1.00
506;DHT22;551;48.524;9.056;2023-02-28T16:29:46;7.10;1.00
506;DHT22;551;48.524;9.056;2023-02-28T16:32:14;7.00;1.00
506;DHT22;551;48.524;9.056;2023-02-28T16:34:41;6.90;1.00
506;DHT22;551;48.524;9.056;2023-02-28T16:37:12;6.90;1.00
506;DHT22;551;48.524;9.056;2023-02-28T16:39:38;6.80;1.00
506;DHT22;551;48.524;9.056;2023-02-28T16:42:04;6.70;1.00
506;DHT22;551;48.524;9.056;2023-02-28T16:44:31;6.60;1.00
506;DHT22;551;48.524;9.056;2023-02-28T16:46:58;6.60;1.00
506;DHT22;551;48.524;9.056;2023-02-28T16:49:24;6.50;1.00
506;DHT22;551;48.524;9.056;2023-02-28T16:51:50;6.40;1.00
506;DHT22;551;48.524;9.056;2023-02-28T16:54:16;6.40;1.00
506;DHT22;551;48.524;9.056;2023-02-28T16:56:44;6.20;1.00
506;DHT22;551;48.524;9.056;2023-02-28T16:59:11;6.10;1.00
506;DHT22;551;48.524;9.056;2023-02-28T17:01:37;6.00;1.00
506;DHT22;551;48.524;9.056;2023-02-28T17:04:03;5.90;1.00
506;DHT22;551;48.524;9.056;2023-02-28T17:06:29;5.90;1.00
506;DHT22;551;48.524;9.056;2023-02-28T17:08:56;5.80;1.00
506;DHT22;551;48.524;9.056;2023-02-28T17:11:22;5.70;1.00
506;DHT22;551;48.524;9.056;2023-02-28T17:13:48;5.60;1.00
506;DHT22;551;48.524;9.056;2023-02-28T17:16:27;5.50;1.00
506;DHT22;551;48.524;9.056;2023-02-28T17:18:57;5.40;1.00
506;DHT22;551;48.524;9.056;2023-02-28T17:21:22;5.40;1.00
506;DHT22;551;48.524;9.056;2023-02-28T17:23:48;5.30;1.00
506;DHT22;551;48.524;9.056;2023-02-28T17:26:15;5.20;1.00
506;DHT22;551;48.524;9.056;2023-02-28T17:28:42;5.20;1.00
506;DHT22;551;48.524;9.056;2023-02-28T17:31:08;5.10;1.00
506;DHT22;551;48.524;9.056;2023-02-28T17:33:34;5.00;1.00
506;DHT22;551;48.524;9.056;2023-02-28T17:36:00;5.00;1.00
506;DHT22;551;48.524;9.056;2023-02-28T17:38:25;5.10;1.00
506;DHT22;551;48.524;9.056;2023-02-28T17:40:51;5.00;1.00
506;DHT22;551;48.524;9.056;2023-02-28T17:43:25;4.90;1.00
506;DHT22;551;48.524;9.056;2023-02-28T17:45:51;4.80;1.00
506;DHT22;551;48.524;9.056;2023-02-28T17:48:16;4.80;1.00
506;DHT22;551;48.524;9.056;2023-02-28T17:50:42;4.70;1.00
506;DHT22;551;48.524;9.056;2023-02-28T17:53:08;4.70;1.00
506;DHT22;551;48.524;9.056;2023-02-28T17:55:33;4.60;1.00
506;DHT22;551;48.524;9.056;2023-02-28T17:57:59;4.50;1.00
506;DHT22;551;48.524;9.056;2023-02-28T18:00:25;4.50;1.00
506;DHT22;551;48.524;9.056;2023-02-28T18:02:51;4.50;1.00
506;DHT22;551;48.524;9.056;2023-02-28T18:05:16;4.60;1.00
506;DHT22;551;48.524;9.056;2023-02-28T18:07:42;4.50;1.00
506;DHT22;551;48.524;9.056;2023-02-28T18:12:48;4.40;1.00
506;DHT22;551;48.524;9.056;2023-02-28T18:15:15;4.30;1.00
506;DHT22;551;48.524;9.056;2023-02-28T18:17:42;4.30;1.00
506;DHT22;551;48.524;9.056;2023-02-28T18:20:09;4.20;1.00
506;DHT22;551;48.524;9.056;2023-02-28T18:22:35;4.10;1.00
506;DHT22;551;48.524;9.056;2023-02-28T18:25:03;4.10;1.00
506;DHT22;551;48.524;9.056;2023-02-28T18:27:29;4.00;1.00
506;DHT22;551;48.524;9.056;2023-02-28T18:29:54;4.00;1.00
506;DHT22;551;48.524;9.056;2023-02-28T18:32:20;3.90;1.00
506;DHT22;551;48.524;9.056;2023-02-28T18:34:45;3.80;1.00
506;DHT22;551;48.524;9.056;2023-02-28T18:37:11;3.80;1.00
506;DHT22;551;48.524;9.056;2023-02-28T18:39:37;3.70;1.00
506;DHT22;551;48.524;9.056;2023-02-28T18:42:02;3.70;1.00
506;DHT22;551;48.524;9.056;2023-02-28T18:44:28;3.70;1.00
506;DHT22;551;48.524;9.056;2023-02-28T18:46:53;3.60;1.00
506;DHT22;551;48.524;9.056;2023-02-28T18:49:19;3.60;1.00
506;DHT22;551;48.524;9.056;2023-02-28T18:51:44;3.60;1.00
506;DHT22;551;48.524;9.056;2023-02-28T18:54:11;3.50;1.00
506;DHT22;551;48.524;9.056;2023-02-28T18:56:37;3.50;1.00
506;DHT22;551;48.524;9.056;2023-02-28T18:59:03;3.40;1.00
506;DHT22;551;48.524;9.056;2023-02-28T19:01:29;3.40;1.00
506;DHT22;551;48.524;9.056;2023-02-28T19:03:57;3.40;1.00
506;DHT22;551;48.524;9.056;2023-02-28T19:06:25;3.40;1.00
506;DHT22;551;48.524;9.056;2023-02-28T19:08:55;3.40;1.00
506;DHT22;551;48.524;9.056;2023-02-28T19:11:22;3.40;1.00
506;DHT22;551;48.524;9.056;2023-02-28T19:13:48;3.40;1.00
506;DHT22;551;48.524;9.056;2023-02-28T19:16:15;3.40;1.00
506;DHT22;551;48.524;9.056;2023-02-28T19:18:41;3.30;1.00
506;DHT22;551;48.524;9.056;2023-02-28T19:21:12;3.40;1.00
506;DHT22;551;48.524;9.056;2023-02-28T19:23:39;3.30;1.00
506;DHT22;551;48.524;9.056;2023-02-28T19:26:12;3.30;1.00
506;DHT22;551;48.524;9.056;2023-02-28T19:28:38;3.40;1.00